sensor_id;sensor_type;location;lat;lon;timestamp;pressure;altitude;pressure_sealevel;temperature;humidity
13486;BME280;6815;59.336;17.998;2022-10-12T00:01:01;77521.31;;;-145.37;66.31
13486;BME280;6815;59.336;17.998;2022-10-12T00:03:29;77529.34;;;-145.37;66.36
13486;BME280;6815;59.336;17.998;2022-10-12T00:06:08;77533.38;;;-145.37;66.46
13486;BME280;6815;59.336;17.998;2022-10-12T00:08:36;77529.34;;;-145.37;66.30
13486;BME280;6815;59.336;17.998;2022-10-12T00:11:03;77531.34;;;-145.37;66.34
13486;BME280;6815;59.336;17.998;2022-10-12T00:13:29;77541.41;;;-145.37;66.57
13486;BME280;6815;59.336;17.998;2022-10-12T00:15:54;77539.41;;;-145.37;66.29
13486;BME280;6815;59.336;17.998;2022-10-12T00:18:20;77541.41;;;-145.37;66.65
13486;BME280;6815;59.336;17.998;2022-10-12T00:20:45;77541.41;;;-145.37;66.88
13486;BME280;6815;59.336;17.998;2022-10-12T00:23:11;77563.53;;;-145.37;67.18
13486;BME280;6815;59.336;17.998;2022-10-12T00:25:37;77557.50;;;-145.37;67.16
13486;BME280;6815;59.336;17.998;2022-10-12T00:28:06;77549.47;;;-145.37;66.88
13486;BME280;6815;59.336;17.998;2022-10-12T00:30:32;77555.50;;;-145.37;66.79
13486;BME280;6815;59.336;17.998;2022-10-12T00:32:58;77557.50;;;-145.37;66.60
13486;BME280;6815;59.336;17.998;2022-10-12T00:35:23;77553.47;;;-145.37;66.46
13486;BME280;6815;59.336;17.998;2022-10-12T00:37:53;77569.56;;;-145.37;66.52
13486;BME280;6815;59.336;17.998;2022-10-12T00:40:20;77567.56;;;-145.37;66.39
13486;BME280;6815;59.336;17.998;2022-10-12T00:42:46;77581.63;;;-145.37;66.78
13486;BME280;6815;59.336;17.998;2022-10-12T00:45:13;77569.56;;;-145.37;66.64
13486;BME280;6815;59.336;17.998;2022-10-12T00:47:49;77567.56;;;-145.37;66.55
13486;BME280;6815;59.336;17.998;2022-10-12T00:50:30;77585.66;;;-145.37;67.17
13486;BME280;6815;59.336;17.998;2022-10-12T00:53:03;77591.69;;;-145.37;66.98
13486;BME280;6815;59.336;17.998;2022-10-12T00:55:33;77589.69;;;-145.37;66.64
13486;BME280;6815;59.336;17.998;2022-10-12T00:58:02;77593.72;;;-145.37;66.87
13486;BME280;6815;59.336;17.998;2022-10-12T01:00:29;77599.75;;;-145.37;66.74
13486;BME280;6815;59.336;17.998;2022-10-12T01:02:54;77607.78;;;-145.37;67.00
13486;BME280;6815;59.336;17.998;2022-10-12T01:05:22;77613.81;;;-145.37;66.98
13486;BME280;6815;59.336;17.998;2022-10-12T01:07:48;77597.72;;;-145.37;66.92
13486;BME280;6815;59.336;17.998;2022-10-12T01:10:15;77605.78;;;-145.37;67.32
13486;BME280;6815;59.336;17.998;2022-10-12T01:12:45;77621.88;;;-145.37;67.83
13486;BME280;6815;59.336;17.998;2022-10-12T01:15:12;77611.81;;;-145.37;67.64
13486;BME280;6815;59.336;17.998;2022-10-12T01:17:58;77609.78;;;-145.37;67.66
13486;BME280;6815;59.336;17.998;2022-10-12T01:31:35;77611.81;;;-145.37;68.02
13486;BME280;6815;59.336;17.998;2022-10-12T01:34:08;77633.94;;;-145.37;68.68
13486;BME280;6815;59.336;17.998;2022-10-12T01:37:00;77619.84;;;-145.37;68.13
13486;BME280;6815;59.336;17.998;2022-10-12T01:39:35;77623.88;;;-145.37;68.08
13486;BME280;6815;59.336;17.998;2022-10-12T01:42:07;77633.94;;;-145.37;68.32
13486;BME280;6815;59.336;17.998;2022-10-12T01:44:35;77644.00;;;-145.37;68.55
13486;BME280;6815;59.336;17.998;2022-10-12T01:47:00;77631.91;;;-145.37;68.27
13486;BME280;6815;59.336;17.998;2022-10-12T01:49:28;77637.94;;;-145.37;68.19
13486;BME280;6815;59.336;17.998;2022-10-12T01:52:19;77646.00;;;-145.37;68.55
13486;BME280;6815;59.336;17.998;2022-10-12T01:55:12;77635.94;;;-145.37;68.80
13486;BME280;6815;59.336;17.998;2022-10-12T02:00:19;77656.06;;;-145.37;69.87
13486;BME280;6815;59.336;17.998;2022-10-12T02:05:26;77672.13;;;-145.37;70.56
13486;BME280;6815;59.336;17.998;2022-10-12T02:10:39;77694.25;;;-145.37;71.01
13486;BME280;6815;59.336;17.998;2022-10-12T02:13:09;77696.28;;;-145.37;71.04
13486;BME280;6815;59.336;17.998;2022-10-12T02:15:39;77712.38;;;-145.37;71.67
13486;BME280;6815;59.336;17.998;2022-10-12T02:18:07;77710.34;;;-145.37;71.41
13486;BME280;6815;59.336;17.998;2022-10-12T02:20:37;77704.31;;;-145.37;71.51
13486;BME280;6815;59.336;17.998;2022-10-12T02:23:06;77712.38;;;-145.37;71.21
13486;BME280;6815;59.336;17.998;2022-10-12T02:25:32;77714.38;;;-145.37;71.04
13486;BME280;6815;59.336;17.998;2022-10-12T02:28:04;77708.34;;;-145.37;70.93
13486;BME280;6815;59.336;17.998;2022-10-12T02:30:53;77724.44;;;-145.37;71.35
13486;BME280;6815;59.336;17.998;2022-10-12T02:33:26;77720.41;;;-145.37;71.19
13486;BME280;6815;59.336;17.998;2022-10-12T02:36:12;77734.50;;;-145.37;71.67
13486;BME280;6815;59.336;17.998;2022-10-12T02:38:47;77746.56;;;-145.37;71.68
13486;BME280;6815;59.336;17.998;2022-10-12T02:41:19;77744.53;;;-145.37;71.71
13486;BME280;6815;59.336;17.998;2022-10-12T02:44:14;77740.53;;;-145.37;71.08
13486;BME280;6815;59.336;17.998;2022-10-12T02:46:41;77756.63;;;-145.37;71.29
13486;BME280;6815;59.336;17.998;2022-10-12T02:49:08;77746.56;;;-145.37;71.02
13486;BME280;6815;59.336;17.998;2022-10-12T02:51:37;77732.47;;;-145.37;70.52
13486;BME280;6815;59.336;17.998;2022-10-12T02:54:04;77752.59;;;-145.37;71.05
13486;BME280;6815;59.336;17.998;2022-10-12T02:56:29;77754.59;;;-145.37;71.14
13486;BME280;6815;59.336;17.998;2022-10-12T02:58:55;77760.63;;;-145.37;71.46
13486;BME280;6815;59.336;17.998;2022-10-12T03:01:20;77742.53;;;-145.37;71.12
13486;BME280;6815;59.336;17.998;2022-10-12T03:03:46;77740.53;;;-145.37;71.10
13486;BME280;6815;59.336;17.998;2022-10-12T03:06:12;77774.72;;;-145.37;72.03
13486;BME280;6815;59.336;17.998;2022-10-12T03:08:37;77770.69;;;-145.37;71.92
13486;BME280;6815;59.336;17.998;2022-10-12T03:11:05;77772.69;;;-145.37;72.09
13486;BME280;6815;59.336;17.998;2022-10-12T03:13:31;77784.78;;;-145.37;72.23
13486;BME280;6815;59.336;17.998;2022-10-12T03:16:01;77780.75;;;-145.37;71.51
13486;BME280;6815;59.336;17.998;2022-10-12T03:18:27;77784.78;;;-145.37;71.63
13486;BME280;6815;59.336;17.998;2022-10-12T03:20:52;77802.88;;;-145.37;72.21
13486;BME280;6815;59.336;17.998;2022-10-12T03:23:18;77802.88;;;-145.37;72.46
13486;BME280;6815;59.336;17.998;2022-10-12T03:25:43;77790.81;;;-145.37;72.13
13486;BME280;6815;59.336;17.998;2022-10-12T03:28:08;77784.78;;;-145.37;72.16
13486;BME280;6815;59.336;17.998;2022-10-12T03:30:34;77786.78;;;-145.37;71.56
13486;BME280;6815;59.336;17.998;2022-10-12T03:32:59;77798.84;;;-145.37;72.03
13486;BME280;6815;59.336;17.998;2022-10-12T03:35:25;77806.91;;;-145.37;72.54
13486;BME280;6815;59.336;17.998;2022-10-12T03:37:50;77825.00;;;-145.37;73.26
13486;BME280;6815;59.336;17.998;2022-10-12T03:40:16;77812.94;;;-145.37;72.76
13486;BME280;6815;59.336;17.998;2022-10-12T03:42:42;77816.94;;;-145.37;73.11
13486;BME280;6815;59.336;17.998;2022-10-12T03:45:07;77825.00;;;-145.37;73.27
13486;BME280;6815;59.336;17.998;2022-10-12T03:47:34;77812.94;;;-145.37;73.19
13486;BME280;6815;59.336;17.998;2022-10-12T03:49:59;77814.94;;;-145.37;73.22
13486;BME280;6815;59.336;17.998;2022-10-12T03:52:25;77837.06;;;-145.37;73.83
13486;BME280;6815;59.336;17.998;2022-10-12T03:54:50;77841.09;;;-145.37;74.12
13486;BME280;6815;59.336;17.998;2022-10-12T03:57:16;77843.09;;;-145.37;74.30
13486;BME280;6815;59.336;17.998;2022-10-12T03:59:41;77861.19;;;-145.37;75.12
13486;BME280;6815;59.336;17.998;2022-10-12T04:02:07;77843.09;;;-145.37;74.07
13486;BME280;6815;59.336;17.998;2022-10-12T04:04:32;77843.09;;;-145.37;73.99
13486;BME280;6815;59.336;17.998;2022-10-12T04:06:58;77855.16;;;-145.37;74.16
13486;BME280;6815;59.336;17.998;2022-10-12T04:09:23;77865.22;;;-145.37;74.40
13486;BME280;6815;59.336;17.998;2022-10-12T04:11:49;77843.09;;;-145.37;73.80
13486;BME280;6815;59.336;17.998;2022-10-12T04:14:15;77849.13;;;-145.37;73.63
13486;BME280;6815;59.336;17.998;2022-10-12T04:16:40;77851.16;;;-145.37;73.98
13486;BME280;6815;59.336;17.998;2022-10-12T04:19:06;77863.22;;;-145.37;74.04
13486;BME280;6815;59.336;17.998;2022-10-12T04:21:31;77859.19;;;-145.37;73.56
13486;BME280;6815;59.336;17.998;2022-10-12T04:23:56;77865.22;;;-145.37;73.74
13486;BME280;6815;59.336;17.998;2022-10-12T04:26:22;77873.25;;;-145.37;73.64
13486;BME280;6815;59.336;17.998;2022-10-12T04:28:48;77873.25;;;-145.37;73.64
13486;BME280;6815;59.336;17.998;2022-10-12T04:31:14;77883.31;;;-145.37;74.15
13486;BME280;6815;59.336;17.998;2022-10-12T04:33:40;77871.25;;;-145.37;73.47
13486;BME280;6815;59.336;17.998;2022-10-12T04:36:06;77873.25;;;-145.37;73.49
13486;BME280;6815;59.336;17.998;2022-10-12T04:38:32;77891.38;;;-145.37;73.50
13486;BME280;6815;59.336;17.998;2022-10-12T04:40:57;77903.44;;;-145.37;74.39
13486;BME280;6815;59.336;17.998;2022-10-12T04:43:23;77913.50;;;-145.37;74.91
13486;BME280;6815;59.336;17.998;2022-10-12T04:45:56;77895.38;;;-145.37;74.25
13486;BME280;6815;59.336;17.998;2022-10-12T04:48:23;77895.38;;;-145.37;74.35
13486;BME280;6815;59.336;17.998;2022-10-12T04:50:50;77891.38;;;-145.37;74.55
13486;BME280;6815;59.336;17.998;2022-10-12T04:53:17;77913.50;;;-145.37;75.08
13486;BME280;6815;59.336;17.998;2022-10-12T04:55:43;77921.53;;;-145.37;75.55
13486;BME280;6815;59.336;17.998;2022-10-12T04:58:08;77913.50;;;-145.37;75.31
13486;BME280;6815;59.336;17.998;2022-10-12T05:00:34;77919.53;;;-145.37;75.30
13486;BME280;6815;59.336;17.998;2022-10-12T05:02:59;77919.53;;;-145.37;75.27
13486;BME280;6815;59.336;17.998;2022-10-12T05:05:25;77935.63;;;-145.37;75.96
13486;BME280;6815;59.336;17.998;2022-10-12T05:07:50;77953.72;;;-145.37;76.07
13486;BME280;6815;59.336;17.998;2022-10-12T05:10:16;77933.59;;;-145.37;75.85
13486;BME280;6815;59.336;17.998;2022-10-12T05:12:42;77937.63;;;-145.37;76.15
13486;BME280;6815;59.336;17.998;2022-10-12T05:15:09;77927.56;;;-145.37;75.46
13486;BME280;6815;59.336;17.998;2022-10-12T05:17:35;77935.63;;;-145.37;76.00
13486;BME280;6815;59.336;17.998;2022-10-12T05:20:02;77973.84;;;-145.37;76.89
13486;BME280;6815;59.336;17.998;2022-10-12T05:22:30;77971.81;;;-145.37;76.93
13486;BME280;6815;59.336;17.998;2022-10-12T05:24:55;77967.81;;;-145.37;76.82
13486;BME280;6815;59.336;17.998;2022-10-12T05:27:21;77971.81;;;-145.37;76.76
13486;BME280;6815;59.336;17.998;2022-10-12T05:29:46;77983.88;;;-145.37;77.85
13486;BME280;6815;59.336;17.998;2022-10-12T05:32:11;77957.75;;;-145.37;76.76
13486;BME280;6815;59.336;17.998;2022-10-12T05:34:37;77975.84;;;-145.37;76.95
13486;BME280;6815;59.336;17.998;2022-10-12T05:37:05;77991.94;;;-145.37;77.87
13486;BME280;6815;59.336;17.998;2022-10-12T05:39:31;77965.78;;;-145.37;77.45
13486;BME280;6815;59.336;17.998;2022-10-12T05:41:56;77955.72;;;-145.37;77.37
13486;BME280;6815;59.336;17.998;2022-10-12T05:44:23;77967.81;;;-145.37;77.82
13486;BME280;6815;59.336;17.998;2022-10-12T05:46:48;77981.88;;;-145.37;78.23
13486;BME280;6815;59.336;17.998;2022-10-12T05:49:14;77977.84;;;-145.37;77.71
13486;BME280;6815;59.336;17.998;2022-10-12T05:51:39;77961.75;;;-145.37;77.63
13486;BME280;6815;59.336;17.998;2022-10-12T05:54:05;77969.81;;;-145.37;77.59
13486;BME280;6815;59.336;17.998;2022-10-12T05:56:30;77973.84;;;-145.37;78.15
13486;BME280;6815;59.336;17.998;2022-10-12T05:58:56;77983.88;;;-145.37;78.42
13486;BME280;6815;59.336;17.998;2022-10-12T06:01:22;77973.84;;;-145.37;78.65
13486;BME280;6815;59.336;17.998;2022-10-12T06:03:47;77959.75;;;-145.37;78.04
13486;BME280;6815;59.336;17.998;2022-10-12T06:06:12;77969.81;;;-145.37;77.68
13486;BME280;6815;59.336;17.998;2022-10-12T06:08:38;77973.84;;;-145.37;77.93
13486;BME280;6815;59.336;17.998;2022-10-12T06:11:04;77989.94;;;-145.37;78.48
13486;BME280;6815;59.336;17.998;2022-10-12T06:13:29;77975.84;;;-145.37;77.87
13486;BME280;6815;59.336;17.998;2022-10-12T06:15:55;77973.84;;;-145.37;78.38
13486;BME280;6815;59.336;17.998;2022-10-12T06:18:21;77967.81;;;-145.37;77.97
13486;BME280;6815;59.336;17.998;2022-10-12T06:20:51;77975.84;;;-145.37;78.74
13486;BME280;6815;59.336;17.998;2022-10-12T06:23:18;78004.00;;;-145.37;79.86
13486;BME280;6815;59.336;17.998;2022-10-12T06:25:45;77983.88;;;-145.37;79.78
13486;BME280;6815;59.336;17.998;2022-10-12T06:28:11;77973.84;;;-145.37;79.22
13486;BME280;6815;59.336;17.998;2022-10-12T06:30:36;77969.81;;;-145.37;79.22
13486;BME280;6815;59.336;17.998;2022-10-12T06:33:02;77979.88;;;-145.37;79.15
13486;BME280;6815;59.336;17.998;2022-10-12T06:35:27;77975.84;;;-145.37;79.12
13486;BME280;6815;59.336;17.998;2022-10-12T06:37:53;77971.81;;;-145.37;79.24
13486;BME280;6815;59.336;17.998;2022-10-12T06:40:18;77961.75;;;-145.37;78.88
13486;BME280;6815;59.336;17.998;2022-10-12T06:42:44;77969.81;;;-145.37;79.48
13486;BME280;6815;59.336;17.998;2022-10-12T06:45:10;77957.75;;;-145.37;78.92
13486;BME280;6815;59.336;17.998;2022-10-12T06:47:35;77951.72;;;-145.37;79.00
13486;BME280;6815;59.336;17.998;2022-10-12T06:50:01;77963.78;;;-145.37;79.89
13486;BME280;6815;59.336;17.998;2022-10-12T06:52:26;77957.75;;;-145.37;79.98
13486;BME280;6815;59.336;17.998;2022-10-12T06:54:52;77957.75;;;-145.37;79.88
13486;BME280;6815;59.336;17.998;2022-10-12T06:57:17;77957.75;;;-145.37;80.59
13486;BME280;6815;59.336;17.998;2022-10-12T06:59:43;77975.84;;;-145.37;80.69
13486;BME280;6815;59.336;17.998;2022-10-12T07:02:11;77951.72;;;-145.37;80.80
13486;BME280;6815;59.336;17.998;2022-10-12T07:04:37;77943.66;;;-145.37;80.30
13486;BME280;6815;59.336;17.998;2022-10-12T07:07:02;77939.63;;;-145.37;80.50
13486;BME280;6815;59.336;17.998;2022-10-12T07:09:28;77941.66;;;-145.37;80.32
13486;BME280;6815;59.336;17.998;2022-10-12T07:11:54;77929.59;;;-145.37;80.01
13486;BME280;6815;59.336;17.998;2022-10-12T07:14:19;77913.50;;;-145.37;79.45
13486;BME280;6815;59.336;17.998;2022-10-12T07:16:44;77923.56;;;-145.37;79.66
13486;BME280;6815;59.336;17.998;2022-10-12T07:19:11;77901.44;;;-145.37;79.20
13486;BME280;6815;59.336;17.998;2022-10-12T07:21:36;77913.50;;;-145.37;79.28
13486;BME280;6815;59.336;17.998;2022-10-12T07:24:02;77913.50;;;-145.37;80.01
13486;BME280;6815;59.336;17.998;2022-10-12T07:26:28;77901.44;;;-145.37;79.58
13486;BME280;6815;59.336;17.998;2022-10-12T07:28:53;77893.38;;;-145.37;79.54
13486;BME280;6815;59.336;17.998;2022-10-12T07:31:18;77903.44;;;-145.37;79.49
13486;BME280;6815;59.336;17.998;2022-10-12T07:33:44;77903.44;;;-145.37;79.63
13486;BME280;6815;59.336;17.998;2022-10-12T07:36:09;77897.41;;;-145.37;79.28
13486;BME280;6815;59.336;17.998;2022-10-12T07:38:35;77895.38;;;-145.37;79.65
13486;BME280;6815;59.336;17.998;2022-10-12T07:41:02;77899.41;;;-145.37;79.62
13486;BME280;6815;59.336;17.998;2022-10-12T07:43:28;77909.47;;;-145.37;79.76
13486;BME280;6815;59.336;17.998;2022-10-12T07:45:54;77899.41;;;-145.37;80.15
13486;BME280;6815;59.336;17.998;2022-10-12T07:48:21;77907.47;;;-145.37;80.05
13486;BME280;6815;59.336;17.998;2022-10-12T07:50:48;77899.41;;;-145.37;79.83
13486;BME280;6815;59.336;17.998;2022-10-12T07:53:15;77893.38;;;-145.37;79.38
13486;BME280;6815;59.336;17.998;2022-10-12T07:55:40;77903.44;;;-145.37;79.98
13486;BME280;6815;59.336;17.998;2022-10-12T07:58:06;77897.41;;;-145.37;79.69
13486;BME280;6815;59.336;17.998;2022-10-12T08:00:31;77885.34;;;-145.37;79.83
13486;BME280;6815;59.336;17.998;2022-10-12T08:02:57;77877.28;;;-145.37;79.52
13486;BME280;6815;59.336;17.998;2022-10-12T08:05:23;77873.25;;;-145.37;79.23
13486;BME280;6815;59.336;17.998;2022-10-12T08:07:50;77865.22;;;-145.37;78.58
13486;BME280;6815;59.336;17.998;2022-10-12T08:10:16;77839.06;;;-145.37;77.83
13486;BME280;6815;59.336;17.998;2022-10-12T08:12:43;77843.09;;;-145.37;77.50
13486;BME280;6815;59.336;17.998;2022-10-12T08:15:09;77835.06;;;-145.37;77.42
13486;BME280;6815;59.336;17.998;2022-10-12T08:17:35;77851.16;;;-145.37;77.43
13486;BME280;6815;59.336;17.998;2022-10-12T08:20:00;77849.13;;;-145.37;77.58
13486;BME280;6815;59.336;17.998;2022-10-12T08:22:26;77849.13;;;-145.37;77.40
13486;BME280;6815;59.336;17.998;2022-10-12T08:24:51;77837.06;;;-145.37;77.30
13486;BME280;6815;59.336;17.998;2022-10-12T08:27:17;77831.03;;;-145.37;76.83
13486;BME280;6815;59.336;17.998;2022-10-12T08:29:42;77820.97;;;-145.37;76.33
13486;BME280;6815;59.336;17.998;2022-10-12T08:32:07;77827.00;;;-145.37;75.81
13486;BME280;6815;59.336;17.998;2022-10-12T08:34:33;77825.00;;;-145.37;74.78
13486;BME280;6815;59.336;17.998;2022-10-12T08:36:58;77810.91;;;-145.37;74.52
13486;BME280;6815;59.336;17.998;2022-10-12T08:39:24;77808.91;;;-145.37;74.31
13486;BME280;6815;59.336;17.998;2022-10-12T08:41:59;77798.84;;;-145.37;73.75
13486;BME280;6815;59.336;17.998;2022-10-12T08:44:32;77790.81;;;-145.37;74.80
13486;BME280;6815;59.336;17.998;2022-10-12T08:47:27;77774.72;;;-145.37;74.75
13486;BME280;6815;59.336;17.998;2022-10-12T08:49:57;77786.78;;;-145.37;75.02
13486;BME280;6815;59.336;17.998;2022-10-12T08:52:48;77782.75;;;-145.37;74.52
13486;BME280;6815;59.336;17.998;2022-10-12T08:55:42;77768.69;;;-145.37;74.52
13486;BME280;6815;59.336;17.998;2022-10-12T08:58:17;77768.69;;;-145.37;74.11
13486;BME280;6815;59.336;17.998;2022-10-12T09:00:47;77758.63;;;-145.37;73.80
13486;BME280;6815;59.336;17.998;2022-10-12T09:16:30;77732.47;;;-145.37;71.69
13486;BME280;6815;59.336;17.998;2022-10-12T09:19:11;77724.44;;;-145.37;71.24
13486;BME280;6815;59.336;17.998;2022-10-12T09:21:40;77726.44;;;-145.37;70.95
13486;BME280;6815;59.336;17.998;2022-10-12T09:24:13;77726.44;;;-145.37;71.19
13486;BME280;6815;59.336;17.998;2022-10-12T09:26:40;77712.38;;;-145.37;71.15
13486;BME280;6815;59.336;17.998;2022-10-12T09:29:24;77710.34;;;-145.37;71.37
13486;BME280;6815;59.336;17.998;2022-10-12T09:32:31;77698.28;;;-145.37;70.29
13486;BME280;6815;59.336;17.998;2022-10-12T09:34:59;77672.13;;;-145.37;68.77
13486;BME280;6815;59.336;17.998;2022-10-12T09:37:28;77670.13;;;-145.37;69.47
13486;BME280;6815;59.336;17.998;2022-10-12T09:39:54;77652.03;;;-145.37;68.48
13486;BME280;6815;59.336;17.998;2022-10-12T09:42:20;77648.00;;;-145.37;67.84
13486;BME280;6815;59.336;17.998;2022-10-12T09:44:48;77644.00;;;-145.37;67.78
13486;BME280;6815;59.336;17.998;2022-10-12T09:49:51;77631.91;;;-145.37;66.14
13486;BME280;6815;59.336;17.998;2022-10-12T09:52:22;77625.88;;;-145.37;65.53
13486;BME280;6815;59.336;17.998;2022-10-12T09:54:51;77631.91;;;-145.37;65.75
13486;BME280;6815;59.336;17.998;2022-10-12T09:57:35;77648.00;;;-145.37;66.35
13486;BME280;6815;59.336;17.998;2022-10-12T10:00:04;77654.03;;;-145.37;66.49
13486;BME280;6815;59.336;17.998;2022-10-12T10:02:31;77652.03;;;-145.37;66.75
13486;BME280;6815;59.336;17.998;2022-10-12T10:05:18;77656.06;;;-145.37;67.45
13486;BME280;6815;59.336;17.998;2022-10-12T10:07:46;77656.06;;;-145.37;66.43
13486;BME280;6815;59.336;17.998;2022-10-12T10:10:23;77658.06;;;-145.37;64.51
13486;BME280;6815;59.336;17.998;2022-10-12T10:12:53;77644.00;;;-145.37;63.04
13486;BME280;6815;59.336;17.998;2022-10-12T10:15:28;77654.03;;;-145.37;63.03
13486;BME280;6815;59.336;17.998;2022-10-12T10:18:06;77652.03;;;-145.37;62.89
13486;BME280;6815;59.336;17.998;2022-10-12T10:20:35;77644.00;;;-145.37;63.66
13486;BME280;6815;59.336;17.998;2022-10-12T10:23:03;77627.91;;;-145.37;62.59
13486;BME280;6815;59.336;17.998;2022-10-12T10:25:30;77635.94;;;-145.37;62.02
13486;BME280;6815;59.336;17.998;2022-10-12T10:28:11;77637.94;;;-145.37;61.54
13486;BME280;6815;59.336;17.998;2022-10-12T10:30:54;77635.94;;;-145.37;61.40
13486;BME280;6815;59.336;17.998;2022-10-12T10:33:20;77639.97;;;-145.37;61.00
13486;BME280;6815;59.336;17.998;2022-10-12T10:41:18;77625.88;;;-145.37;59.74
13486;BME280;6815;59.336;17.998;2022-10-12T10:43:48;77621.88;;;-145.37;60.40
13486;BME280;6815;59.336;17.998;2022-10-12T10:46:21;77613.81;;;-145.37;59.96
13486;BME280;6815;59.336;17.998;2022-10-12T10:48:51;77605.78;;;-145.37;60.57
13486;BME280;6815;59.336;17.998;2022-10-12T10:51:20;77597.72;;;-145.37;60.19
13486;BME280;6815;59.336;17.998;2022-10-12T10:53:48;77595.72;;;-145.37;60.34
13486;BME280;6815;59.336;17.998;2022-10-12T10:56:23;77591.69;;;-145.37;60.56
13486;BME280;6815;59.336;17.998;2022-10-12T10:59:12;77589.69;;;-145.37;60.07
13486;BME280;6815;59.336;17.998;2022-10-12T11:01:44;77587.66;;;-145.37;59.15
13486;BME280;6815;59.336;17.998;2022-10-12T11:04:22;77581.63;;;-145.37;59.71
13486;BME280;6815;59.336;17.998;2022-10-12T11:06:53;77583.66;;;-145.37;58.69
13486;BME280;6815;59.336;17.998;2022-10-12T11:09:34;77585.66;;;-145.37;58.65
13486;BME280;6815;59.336;17.998;2022-10-12T11:12:23;77585.66;;;-145.37;58.87
13486;BME280;6815;59.336;17.998;2022-10-12T11:14:55;77579.63;;;-145.37;59.29
13486;BME280;6815;59.336;17.998;2022-10-12T11:17:30;77561.53;;;-145.37;58.20
13486;BME280;6815;59.336;17.998;2022-10-12T11:20:30;77547.44;;;-145.37;57.29
13486;BME280;6815;59.336;17.998;2022-10-12T11:23:19;77543.44;;;-145.37;56.48
13486;BME280;6815;59.336;17.998;2022-10-12T11:28:19;77523.31;;;-145.37;54.53
13486;BME280;6815;59.336;17.998;2022-10-12T11:30:47;77537.41;;;-145.37;54.01
13486;BME280;6815;59.336;17.998;2022-10-12T11:33:32;77529.34;;;-145.37;54.24
13486;BME280;6815;59.336;17.998;2022-10-12T11:36:05;77517.28;;;-145.37;53.13
13486;BME280;6815;59.336;17.998;2022-10-12T11:38:41;77521.31;;;-145.37;52.47
13486;BME280;6815;59.336;17.998;2022-10-12T11:41:21;77519.28;;;-145.37;50.49
13486;BME280;6815;59.336;17.998;2022-10-12T11:44:00;77515.28;;;-145.37;50.50
13486;BME280;6815;59.336;17.998;2022-10-12T11:46:34;77515.28;;;-145.37;49.51
13486;BME280;6815;59.336;17.998;2022-10-12T11:49:24;77515.28;;;-145.37;48.25
13486;BME280;6815;59.336;17.998;2022-10-12T11:51:56;77519.28;;;-145.37;48.10
13486;BME280;6815;59.336;17.998;2022-10-12T11:56:55;77521.31;;;-145.37;49.91
13486;BME280;6815;59.336;17.998;2022-10-12T11:59:46;77513.25;;;-145.37;49.35
13486;BME280;6815;59.336;17.998;2022-10-12T12:04:44;77503.22;;;-145.37;49.09
13486;BME280;6815;59.336;17.998;2022-10-12T12:07:49;77517.28;;;-145.37;49.19
13486;BME280;6815;59.336;17.998;2022-10-12T12:15:38;77505.22;;;-145.37;48.39
13486;BME280;6815;59.336;17.998;2022-10-12T12:18:17;77511.25;;;-145.37;48.81
13486;BME280;6815;59.336;17.998;2022-10-12T12:21:02;77503.22;;;-145.37;49.86
13486;BME280;6815;59.336;17.998;2022-10-12T12:23:50;77499.19;;;-145.37;49.41
13486;BME280;6815;59.336;17.998;2022-10-12T12:26:17;77509.25;;;-145.37;49.17
13486;BME280;6815;59.336;17.998;2022-10-12T12:29:06;77503.22;;;-145.37;48.89
13486;BME280;6815;59.336;17.998;2022-10-12T12:31:33;77499.19;;;-145.37;48.58
13486;BME280;6815;59.336;17.998;2022-10-12T12:34:16;77501.19;;;-145.37;49.17
13486;BME280;6815;59.336;17.998;2022-10-12T12:36:44;77499.19;;;-145.37;49.75
13486;BME280;6815;59.336;17.998;2022-10-12T12:39:37;77495.16;;;-145.37;50.21
13486;BME280;6815;59.336;17.998;2022-10-12T12:42:06;77499.19;;;-145.37;50.30
13486;BME280;6815;59.336;17.998;2022-10-12T12:44:33;77501.19;;;-145.37;50.52
13486;BME280;6815;59.336;17.998;2022-10-12T12:52:04;77501.19;;;-145.37;51.29
13486;BME280;6815;59.336;17.998;2022-10-12T12:54:34;77495.16;;;-145.37;50.88
13486;BME280;6815;59.336;17.998;2022-10-12T13:16:50;77495.16;;;-145.37;50.82
13486;BME280;6815;59.336;17.998;2022-10-12T13:19:20;77487.13;;;-145.37;50.59
13486;BME280;6815;59.336;17.998;2022-10-12T13:21:48;77495.16;;;-145.37;50.39
13486;BME280;6815;59.336;17.998;2022-10-12T13:27:22;77499.19;;;-145.37;51.34
13486;BME280;6815;59.336;17.998;2022-10-12T13:29:54;77493.16;;;-145.37;50.75
13486;BME280;6815;59.336;17.998;2022-10-12T13:32:52;77495.16;;;-145.37;50.45
13486;BME280;6815;59.336;17.998;2022-10-12T13:38:12;77493.16;;;-145.37;49.16
13486;BME280;6815;59.336;17.998;2022-10-12T13:40:43;77493.16;;;-145.37;49.09
13486;BME280;6815;59.336;17.998;2022-10-12T13:45:44;77499.19;;;-145.37;48.93
13486;BME280;6815;59.336;17.998;2022-10-12T13:48:16;77487.13;;;-145.37;48.98
13486;BME280;6815;59.336;17.998;2022-10-12T13:50:53;77495.16;;;-145.37;48.90
13486;BME280;6815;59.336;17.998;2022-10-12T13:53:20;77497.16;;;-145.37;49.61
13486;BME280;6815;59.336;17.998;2022-10-12T13:56:08;77495.16;;;-145.37;49.74
13486;BME280;6815;59.336;17.998;2022-10-12T13:58:35;77495.16;;;-145.37;50.21
13486;BME280;6815;59.336;17.998;2022-10-12T14:01:01;77491.13;;;-145.37;49.95
13486;BME280;6815;59.336;17.998;2022-10-12T14:03:41;77495.16;;;-145.37;50.78
13486;BME280;6815;59.336;17.998;2022-10-12T14:06:27;77499.19;;;-145.37;50.53
13486;BME280;6815;59.336;17.998;2022-10-12T14:09:00;77499.19;;;-145.37;50.83
13486;BME280;6815;59.336;17.998;2022-10-12T14:11:26;77489.13;;;-145.37;50.64
13486;BME280;6815;59.336;17.998;2022-10-12T14:13:52;77493.16;;;-145.37;50.89
13486;BME280;6815;59.336;17.998;2022-10-12T14:16:18;77497.16;;;-145.37;51.10
13486;BME280;6815;59.336;17.998;2022-10-12T14:18:44;77499.19;;;-145.37;51.09
13486;BME280;6815;59.336;17.998;2022-10-12T14:21:26;77497.16;;;-145.37;50.35